createdAt,value
2024-03-09T00:00:05.924Z,100318.75
2024-03-09T00:01:39.462Z,100323.84
2024-03-09T00:03:12.050Z,100317.72
2024-03-09T00:04:45.424Z,100315.13
2024-03-09T00:06:17.697Z,100319.34
2024-03-09T00:07:49.906Z,100317.69
2024-03-09T00:09:21.958Z,100325.34
2024-03-09T00:10:53.981Z,100323.66
2024-03-09T00:12:26.040Z,100325.41
2024-03-09T00:13:58.094Z,100319.41
2024-03-09T00:15:30.370Z,100319.38
2024-03-09T00:17:02.833Z,100315.03
2024-03-09T00:18:41.435Z,100315.03
2024-03-09T00:20:21.148Z,100312.53
2024-03-09T00:21:53.282Z,100321.13
2024-03-09T00:23:28.397Z,100317.75
2024-03-09T00:25:04.414Z,100316.09
2024-03-09T00:26:36.570Z,100311.88
2024-03-09T00:28:08.746Z,100317.00
2024-03-09T00:29:40.904Z,100315.19
2024-03-09T00:31:13.590Z,100308.22
2024-03-09T00:32:46.582Z,100314.13
2024-03-09T00:34:21.297Z,100312.41
2024-03-09T00:35:56.021Z,100313.31
2024-03-09T00:37:28.067Z,100303.97
2024-03-09T00:39:00.103Z,100311.69
2024-03-09T00:40:32.361Z,100304.91
2024-03-09T00:43:45.864Z,100304.13
2024-03-09T00:45:20.341Z,100301.63
2024-03-09T00:46:52.485Z,100305.06
2024-03-09T00:48:24.564Z,100299.16
2024-03-09T00:49:57.649Z,100295.81
2024-03-09T00:51:32.455Z,100298.31
2024-03-09T00:53:04.933Z,100295.66
2024-03-09T00:54:38.659Z,100288.75
2024-03-09T00:56:10.814Z,100287.75
2024-03-09T00:57:43.539Z,100292.78
2024-03-09T00:59:17.447Z,100286.78
2024-03-09T01:00:50.141Z,100289.28
2024-03-09T01:02:22.589Z,100287.63
2024-03-09T01:03:57.112Z,100282.59
2024-03-09T01:05:29.213Z,100286.00
2024-03-09T01:07:01.264Z,100286.00
2024-03-09T01:08:35.266Z,100283.50
2024-03-09T01:10:08.022Z,100277.63
2024-03-09T01:11:40.044Z,100279.19
2024-03-09T01:13:17.083Z,100280.84
2024-03-09T01:14:49.826Z,100273.28
2024-03-09T01:16:21.807Z,100276.56
2024-03-09T01:19:26.441Z,100270.19
2024-03-09T01:20:58.542Z,100277.78
2024-03-09T01:22:30.556Z,100276.88
2024-03-09T01:24:03.183Z,100280.25
2024-03-09T01:25:35.206Z,100275.97
2024-03-09T01:27:07.459Z,100269.06
2024-03-09T01:28:42.749Z,100276.56
2024-03-09T01:30:16.660Z,100268.00
2024-03-09T01:31:48.785Z,100274.06
2024-03-09T01:33:20.891Z,100269.88
2024-03-09T01:34:53.033Z,100275.97
2024-03-09T01:36:26.102Z,100268.38
2024-03-09T01:37:59.790Z,100273.56
2024-03-09T01:39:32.075Z,100266.84
2024-03-09T01:41:04.263Z,100268.63
2024-03-09T01:42:36.260Z,100273.72
2024-03-09T01:44:08.697Z,100265.31
2024-03-09T01:45:40.683Z,100269.63
2024-03-09T01:47:13.608Z,100270.41
2024-03-09T01:48:46.183Z,100265.31
2024-03-09T01:50:18.196Z,100269.47
2024-03-09T01:53:27.194Z,100266.75
2024-03-09T01:54:59.273Z,100270.94
2024-03-09T01:56:31.281Z,100276.78
2024-03-09T01:58:04.553Z,100274.97
2024-03-09T01:59:38.875Z,100269.03
2024-03-09T02:01:27.886Z,100267.22
2024-03-09T02:02:59.962Z,100268.91
2024-03-09T02:04:32.373Z,100263.75
2024-03-09T02:06:07.120Z,100268.00
2024-03-09T02:07:39.629Z,100268.84
2024-03-09T02:09:11.637Z,100264.53
2024-03-09T02:10:43.747Z,100257.69
2024-03-09T02:12:18.699Z,100256.75
2024-03-09T02:13:52.385Z,100253.28
2024-03-09T02:15:31.263Z,100250.63
2024-03-09T02:17:09.467Z,100254.19
2024-03-09T02:18:41.918Z,100258.50
2024-03-09T02:20:15.886Z,100256.69
2024-03-09T02:21:48.090Z,100258.28
2024-03-09T02:23:20.985Z,100261.59
2024-03-09T02:24:57.591Z,100257.31
2024-03-09T02:26:30.464Z,100259.00
2024-03-09T02:28:03.802Z,100263.94
2024-03-09T02:29:39.708Z,100261.38
2024-03-09T02:31:13.628Z,100258.78
2024-03-09T02:32:45.883Z,100257.03
2024-03-09T02:34:17.902Z,100258.66
2024-03-09T02:35:50.042Z,100263.75
2024-03-09T02:37:22.124Z,100261.16
2024-03-09T02:38:54.244Z,100263.69
2024-03-09T02:40:26.379Z,100262.78
2024-03-09T02:42:00.390Z,100255.09
2024-03-09T02:43:32.717Z,100258.47
2024-03-09T02:45:04.906Z,100246.66
2024-03-09T02:46:37.928Z,100255.94
2024-03-09T02:48:09.986Z,100245.72
2024-03-09T02:49:42.136Z,100251.59
2024-03-09T02:51:14.302Z,100254.88
2024-03-09T02:52:47.454Z,100258.19
2024-03-09T02:54:19.542Z,100249.69
2024-03-09T02:55:51.588Z,100265.13
2024-03-09T02:57:24.790Z,100258.50
2024-03-09T02:58:57.016Z,100254.25
2024-03-09T03:00:29.261Z,100253.22
2024-03-09T03:02:05.675Z,100266.81
2024-03-09T03:03:47.865Z,100268.63
2024-03-09T03:05:19.856Z,100271.16
2024-03-09T03:06:52.090Z,100271.13
2024-03-09T03:08:25.103Z,100270.34
2024-03-09T03:09:59.396Z,100262.69
2024-03-09T03:11:33.757Z,100261.88
2024-03-09T03:13:06.391Z,100261.88
2024-03-09T03:14:41.153Z,100267.59
2024-03-09T03:16:27.563Z,100258.91
2024-03-09T03:17:59.681Z,100261.22
2024-03-09T03:19:31.794Z,100263.84
2024-03-09T03:21:05.097Z,100254.56
2024-03-09T03:22:39.469Z,100261.47
2024-03-09T03:24:11.649Z,100252.97
2024-03-09T03:25:46.086Z,100259.94
2024-03-09T03:27:20.780Z,100256.50
2024-03-09T03:28:53.865Z,100260.72
2024-03-09T03:30:26.789Z,100258.19
2024-03-09T03:32:00.244Z,100260.75
2024-03-09T03:33:33.780Z,100261.53
2024-03-09T03:35:08.999Z,100272.50
2024-03-09T03:36:41.310Z,100267.47
2024-03-09T03:38:13.603Z,100264.75
2024-03-09T03:39:46.495Z,100253.63
2024-03-09T03:41:20.229Z,100259.66
2024-03-09T03:42:52.930Z,100256.25
2024-03-09T03:44:26.887Z,100260.44
2024-03-09T03:45:58.867Z,100253.66
2024-03-09T03:47:30.982Z,100259.53
2024-03-09T03:49:03.114Z,100256.09
2024-03-09T03:50:35.185Z,100259.53
2024-03-09T03:52:07.145Z,100260.44
2024-03-09T03:53:39.817Z,100259.66
2024-03-09T03:55:14.624Z,100258.69
2024-03-09T03:56:46.736Z,100263.69
2024-03-09T03:58:21.967Z,100257.72
2024-03-09T03:59:53.932Z,100258.56
2024-03-09T04:01:26.094Z,100263.66
2024-03-09T04:02:58.146Z,100262.94
2024-03-09T04:04:30.270Z,100266.28
2024-03-09T04:06:04.007Z,100260.31
2024-03-09T04:07:36.502Z,100259.31
2024-03-09T04:09:14.877Z,100260.03
2024-03-09T04:10:50.630Z,100260.81
2024-03-09T04:12:22.784Z,100259.09
2024-03-09T04:13:56.343Z,100266.03
2024-03-09T04:15:28.559Z,100261.00
2024-03-09T04:17:00.765Z,100261.06
2024-03-09T04:18:34.754Z,100258.56
2024-03-09T04:20:07.134Z,100261.84
2024-03-09T04:21:39.771Z,100256.00
2024-03-09T04:23:17.893Z,100258.50
2024-03-09T04:24:50.327Z,100261.19
2024-03-09T04:26:22.992Z,100267.25
2024-03-09T04:27:56.989Z,100265.53
2024-03-09T04:29:30.499Z,100268.94
2024-03-09T04:31:02.508Z,100266.19
2024-03-09T04:32:34.560Z,100266.16
2024-03-09T04:34:12.619Z,100271.19
2024-03-09T04:35:46.459Z,100267.91
2024-03-09T04:37:26.963Z,100273.97
2024-03-09T04:39:02.725Z,100267.19
2024-03-09T04:40:35.626Z,100267.28
2024-03-09T04:42:08.867Z,100268.19
2024-03-09T04:43:41.797Z,100267.41
2024-03-09T04:45:31.739Z,100273.38
2024-03-09T04:47:05.557Z,100264.91
2024-03-09T04:48:37.573Z,100273.47
2024-03-09T04:50:09.898Z,100271.72
2024-03-09T04:51:41.958Z,100269.19
2024-03-09T04:53:13.968Z,100269.31
2024-03-09T04:54:45.984Z,100275.25
2024-03-09T04:56:18.260Z,100271.06
2024-03-09T04:57:51.672Z,100272.81
2024-03-09T04:59:26.235Z,100274.53
2024-03-09T05:00:58.358Z,100273.78
2024-03-09T05:02:31.279Z,100272.69
2024-03-09T05:04:03.355Z,100270.88
2024-03-09T05:05:36.326Z,100276.66
2024-03-09T05:07:08.850Z,100269.72
2024-03-09T05:08:41.156Z,100268.03
2024-03-09T05:10:17.545Z,100276.56
2024-03-09T05:11:51.684Z,100272.56
2024-03-09T05:13:23.954Z,100278.47
2024-03-09T05:14:56.188Z,100275.13
2024-03-09T05:16:29.966Z,100274.34
2024-03-09T05:18:13.248Z,100270.94
2024-03-09T05:19:45.601Z,100270.16
2024-03-09T05:21:18.377Z,100271.91
2024-03-09T05:22:59.963Z,100272.81
2024-03-09T05:24:33.391Z,100278.66
2024-03-09T05:27:45.844Z,100278.66
2024-03-09T05:29:17.961Z,100282.09
2024-03-09T05:30:50.024Z,100282.09
2024-03-09T05:32:24.064Z,100273.50
2024-03-09T05:33:56.164Z,100274.41
2024-03-09T05:35:29.916Z,100280.34
2024-03-09T05:37:07.845Z,100275.97
2024-03-09T05:38:40.146Z,100282.97
2024-03-09T05:40:14.836Z,100275.44
2024-03-09T05:41:47.001Z,100280.53
2024-03-09T05:43:19.107Z,100287.44
2024-03-09T05:44:51.193Z,100283.25
2024-03-09T05:46:23.538Z,100286.78
2024-03-09T05:47:56.324Z,100284.41
2024-03-09T05:49:29.059Z,100284.50
2024-03-09T05:51:01.106Z,100282.13
2024-03-09T05:52:33.492Z,100282.22
2024-03-09T05:54:05.977Z,100284.84
2024-03-09T05:55:38.157Z,100278.94
2024-03-09T05:57:10.212Z,100280.00
2024-03-09T05:58:42.431Z,100274.91
2024-03-09T06:01:47.318Z,100277.53
2024-03-09T06:03:19.606Z,100282.78
2024-03-09T06:04:54.029Z,100280.34
2024-03-09T06:06:26.508Z,100283.75
2024-03-09T06:07:59.402Z,100280.47
2024-03-09T06:09:31.654Z,100282.25
2024-03-09T06:11:04.621Z,100280.63
2024-03-09T06:12:37.043Z,100280.63
2024-03-09T06:14:09.201Z,100280.72
2024-03-09T06:15:43.035Z,100277.44
2024-03-09T06:17:16.860Z,100274.91
2024-03-09T06:18:49.696Z,100277.59
2024-03-09T06:20:22.016Z,100277.66
2024-03-09T06:21:54.545Z,100279.44
2024-03-09T06:23:26.820Z,100277.75
2024-03-09T06:24:58.855Z,100287.09
2024-03-09T06:26:31.120Z,100286.41
2024-03-09T06:28:06.940Z,100289.91
2024-03-09T06:29:39.443Z,100283.16
2024-03-09T06:31:11.795Z,100288.31
2024-03-09T06:32:45.563Z,100290.97
2024-03-09T06:34:17.672Z,100283.47
2024-03-09T06:37:29.103Z,100288.72
2024-03-09T06:39:01.545Z,100285.41
2024-03-09T06:40:34.930Z,100286.28
2024-03-09T06:42:12.561Z,100288.06
2024-03-09T06:43:44.670Z,100284.84
2024-03-09T06:45:16.760Z,100289.19
2024-03-09T06:46:52.930Z,100290.91
2024-03-09T06:48:25.548Z,100289.19
2024-03-09T06:49:57.850Z,100287.53
2024-03-09T06:51:30.088Z,100295.31
2024-03-09T06:53:02.756Z,100291.94
2024-03-09T06:54:35.457Z,100287.72
2024-03-09T06:56:09.470Z,100292.94
2024-03-09T06:57:42.354Z,100288.72
2024-03-09T06:59:14.582Z,100294.78
2024-03-09T07:00:46.711Z,100288.06
2024-03-09T07:02:19.428Z,100291.56
2024-03-09T07:03:51.605Z,100286.50
2024-03-09T07:05:23.694Z,100286.56
2024-03-09T07:06:57.768Z,100290.94
2024-03-09T07:08:29.804Z,100287.59
2024-03-09T07:10:01.932Z,100285.94
2024-03-09T07:11:33.920Z,100293.72
2024-03-09T07:13:10.882Z,100284.38
2024-03-09T07:14:44.596Z,100286.16
2024-03-09T07:16:17.498Z,100281.13
2024-03-09T07:17:50.683Z,100271.94
2024-03-09T07:19:22.783Z,100271.19
2024-03-09T07:20:54.953Z,100278.19
2024-03-09T07:22:27.558Z,100277.44
2024-03-09T07:24:00.478Z,100276.75
2024-03-09T07:25:32.894Z,100276.03
2024-03-09T07:27:05.147Z,100273.63
2024-03-09T07:28:37.307Z,100274.50
2024-03-09T07:30:11.101Z,100274.59
2024-03-09T07:31:43.173Z,100271.22
2024-03-09T07:33:15.245Z,100273.84
2024-03-09T07:34:49.716Z,100271.31
2024-03-09T07:36:22.244Z,100266.22
2024-03-09T07:38:01.123Z,100270.59
2024-03-09T07:39:39.494Z,100266.44
2024-03-09T07:41:11.785Z,100268.22
2024-03-09T07:42:44.211Z,100268.25
2024-03-09T07:44:16.346Z,100269.22
2024-03-09T07:45:48.493Z,100273.66
2024-03-09T07:47:20.588Z,100265.13
2024-03-09T07:48:52.595Z,100267.78
2024-03-09T07:50:24.979Z,100267.06
2024-03-09T07:51:57.842Z,100264.66
2024-03-09T07:53:30.054Z,100262.25
2024-03-09T07:55:02.259Z,100264.13
2024-03-09T07:56:34.461Z,100261.72
2024-03-09T07:58:14.467Z,100267.84
2024-03-09T07:59:54.739Z,100266.28
2024-03-09T08:01:26.905Z,100267.22
2024-03-09T08:03:01.425Z,100263.91
2024-03-09T08:04:33.665Z,100261.34
2024-03-09T08:06:05.919Z,100258.84
2024-03-09T08:07:37.980Z,100255.47
2024-03-09T08:09:15.110Z,100257.25
2024-03-09T08:10:54.517Z,100254.75
2024-03-09T08:12:26.782Z,100250.59
2024-03-09T08:13:58.967Z,100257.50
2024-03-09T08:15:31.232Z,100252.44
2024-03-09T08:17:04.127Z,100249.97
2024-03-09T08:18:38.005Z,100248.31
2024-03-09T08:20:10.694Z,100255.25
2024-03-09T08:21:43.447Z,100256.19
2024-03-09T08:23:15.503Z,100257.16
2024-03-09T08:24:47.577Z,100253.84
2024-03-09T08:26:19.953Z,100261.59
2024-03-09T08:27:53.243Z,100258.19
2024-03-09T08:29:25.242Z,100251.41
2024-03-09T08:30:58.783Z,100252.31
2024-03-09T08:32:31.450Z,100252.38
2024-03-09T08:52:26.574Z,100244.97
2024-03-09T08:53:59.691Z,100243.28
2024-03-09T08:55:34.795Z,100243.31
2024-03-09T08:57:08.770Z,100239.91
2024-03-09T08:58:42.860Z,100242.50
2024-03-09T09:00:17.119Z,100240.78
2024-03-09T09:01:49.947Z,100240.78
2024-03-09T09:03:24.367Z,100242.53
2024-03-09T09:04:56.541Z,100242.50
2024-03-09T09:06:28.680Z,100241.69
2024-03-09T09:08:01.380Z,100245.97
2024-03-09T09:09:33.590Z,100241.69
2024-03-09T09:11:06.313Z,100235.69
2024-03-09T09:12:39.717Z,100236.53
2024-03-09T09:14:12.395Z,100238.25
2024-03-09T09:15:48.204Z,100241.69
2024-03-09T09:17:20.722Z,100239.97
2024-03-09T09:18:53.450Z,100233.94
2024-03-09T09:20:26.115Z,100233.97
2024-03-09T09:21:58.417Z,100230.53
2024-03-09T09:23:30.757Z,100227.94
2024-03-09T09:25:04.166Z,100230.53
2024-03-09T09:26:36.316Z,100223.66
2024-03-09T09:28:09.686Z,100227.09
2024-03-09T09:29:41.820Z,100220.25
2024-03-09T09:31:14.084Z,100219.38
2024-03-09T09:32:46.181Z,100225.38
2024-03-09T09:34:18.332Z,100215.03
2024-03-09T09:35:53.485Z,100215.91
2024-03-09T09:37:25.705Z,100215.06
2024-03-09T09:39:00.642Z,100221.03
2024-03-09T09:40:35.667Z,100224.50
2024-03-09T09:42:08.008Z,100219.34
2024-03-09T09:43:40.387Z,100220.16
2024-03-09T09:45:19.426Z,100220.19
2024-03-09T09:46:53.999Z,100219.31
2024-03-09T09:48:26.695Z,100214.13
2024-03-09T09:49:59.012Z,100212.34
2024-03-09T09:51:31.236Z,100206.31
2024-03-09T09:53:04.452Z,100213.13
2024-03-09T09:54:40.471Z,100203.66
2024-03-09T09:56:12.647Z,100199.31
2024-03-09T09:57:47.728Z,100197.50
2024-03-09T09:59:20.612Z,100195.78
2024-03-09T10:00:54.799Z,100204.34
2024-03-09T10:02:26.992Z,100199.13
2024-03-09T10:03:59.477Z,100192.28
2024-03-09T10:05:35.653Z,100197.41
2024-03-09T10:07:09.524Z,100194.81
2024-03-09T10:08:51.080Z,100192.16
2024-03-09T10:10:23.284Z,100201.59
2024-03-09T10:11:55.979Z,100199.84
2024-03-09T10:13:29.545Z,100196.34
2024-03-09T10:15:12.835Z,100197.13
2024-03-09T10:16:45.101Z,100201.38
2024-03-09T10:18:21.506Z,100193.56
2024-03-09T10:19:57.243Z,100186.59
2024-03-09T10:21:37.423Z,100186.59
2024-03-09T10:23:13.581Z,100190.97
2024-03-09T10:24:52.444Z,100191.81
2024-03-09T10:26:26.066Z,100186.78
2024-03-09T10:28:01.180Z,100192.72
2024-03-09T10:29:33.304Z,100186.66
2024-03-09T10:31:06.671Z,100189.19
2024-03-09T10:32:43.549Z,100189.97
2024-03-09T10:34:15.812Z,100185.66
2024-03-09T10:35:49.902Z,100183.84
2024-03-09T10:37:24.787Z,100185.66
2024-03-09T10:38:57.025Z,100181.25
2024-03-09T10:40:29.137Z,100176.88
2024-03-09T10:42:01.742Z,100179.38
2024-03-09T10:43:33.827Z,100170.72
2024-03-09T10:45:13.510Z,100174.88
2024-03-09T10:46:47.536Z,100172.22
2024-03-09T10:48:19.885Z,100172.28
2024-03-09T10:49:52.036Z,100176.53
2024-03-09T10:51:30.324Z,100173.09
2024-03-09T10:53:05.201Z,100170.44
2024-03-09T10:54:46.685Z,100172.19
2024-03-09T10:56:19.826Z,100169.53
2024-03-09T10:57:54.273Z,100157.31
2024-03-09T10:59:27.128Z,100158.91
2024-03-09T11:00:59.333Z,100152.88
2024-03-09T11:02:31.658Z,100157.91
2024-03-09T11:05:38.737Z,100153.31
2024-03-09T11:07:10.823Z,100150.66
2024-03-09T11:08:45.179Z,100144.56
2024-03-09T11:10:17.306Z,100144.50
2024-03-09T11:11:49.666Z,100144.41
2024-03-09T11:13:21.919Z,100143.56
2024-03-09T11:14:54.273Z,100143.66
2024-03-09T11:16:26.526Z,100135.72
2024-03-09T11:17:58.873Z,100135.63
2024-03-09T11:19:31.549Z,100135.66
2024-03-09T11:21:04.314Z,100134.75
2024-03-09T11:22:39.539Z,100128.69
2024-03-09T11:24:14.726Z,100120.97
2024-03-09T11:25:47.822Z,100124.47
2024-03-09T11:27:20.973Z,100125.22
2024-03-09T11:28:57.479Z,100124.25
2024-03-09T11:30:31.851Z,100121.72
2024-03-09T11:32:07.458Z,100119.78
2024-03-09T11:33:45.882Z,100120.50
2024-03-09T11:35:34.174Z,100112.72
2024-03-09T11:37:06.769Z,100112.53
2024-03-09T11:38:41.899Z,100109.94
2024-03-09T11:40:14.601Z,100104.75
2024-03-09T11:41:48.083Z,100107.22
2024-03-09T11:43:20.212Z,100106.50
2024-03-09T11:44:52.244Z,100102.94
2024-03-09T11:46:24.346Z,100104.75
2024-03-09T11:47:57.994Z,100096.75
2024-03-09T11:49:30.629Z,100100.97
2024-03-09T11:51:02.751Z,100101.88
2024-03-09T11:52:34.893Z,100093.06
2024-03-09T11:54:10.080Z,100098.13
2024-03-09T11:55:43.351Z,100092.88
2024-03-09T11:57:15.499Z,100087.66
2024-03-09T11:58:47.600Z,100095.31
2024-03-09T12:00:19.683Z,100091.06
2024-03-09T12:02:01.531Z,100080.59
2024-03-09T12:03:35.250Z,100087.66
2024-03-09T12:05:17.519Z,100092.16
2024-03-09T12:06:49.646Z,100084.28
2024-03-09T12:10:03.178Z,100075.44
2024-03-09T12:11:36.143Z,100077.16
2024-03-09T12:13:08.265Z,100083.09
2024-03-09T12:14:43.306Z,100076.09
2024-03-09T12:16:15.739Z,100076.91
2024-03-09T12:17:48.851Z,100058.91
2024-03-09T12:19:21.071Z,100075.19
2024-03-09T12:20:54.593Z,100070.69
2024-03-09T12:22:28.239Z,100066.41
2024-03-09T12:24:02.873Z,100069.00
2024-03-09T12:25:36.307Z,100073.16
2024-03-09T12:27:10.085Z,100069.63
2024-03-09T12:28:45.395Z,100068.88
2024-03-09T12:30:18.240Z,100067.16
2024-03-09T12:31:50.862Z,100064.75
2024-03-09T12:33:23.238Z,100067.22
2024-03-09T12:34:56.294Z,100065.47
2024-03-09T12:36:29.920Z,100068.88
2024-03-09T12:38:14.429Z,100054.94
2024-03-09T13:34:35.216Z,100025.88
2024-03-09T13:36:07.728Z,100022.47
2024-03-09T13:37:41.730Z,100018.16
2024-03-09T13:39:18.136Z,100020.53
2024-03-09T13:40:50.485Z,100017.81
2024-03-09T13:42:22.612Z,100020.69
2024-03-09T13:43:56.083Z,100020.19
2024-03-09T13:45:29.592Z,100016.59
2024-03-09T13:48:34.563Z,100017.28
2024-03-09T13:50:10.152Z,100001.53
2024-03-09T13:51:45.171Z,100003.16
2024-03-09T13:53:19.215Z,100007.72
2024-03-09T13:54:53.488Z,100008.72
2024-03-09T13:56:29.929Z,100004.28
2024-03-09T13:58:02.444Z,99999.97
2024-03-09T13:59:36.807Z,100008.50
2024-03-09T14:01:15.323Z,100006.25
2024-03-09T14:02:48.761Z,100003.63
2024-03-09T14:04:25.377Z,100009.09
2024-03-09T14:05:58.122Z,100002.28
2024-03-09T14:07:30.454Z,100005.72
2024-03-09T14:09:05.130Z,99998.72
2024-03-09T14:10:37.390Z,99999.50
2024-03-09T14:12:11.295Z,99998.75
2024-03-09T14:13:43.413Z,99999.66
2024-03-09T14:15:22.878Z,100000.50
2024-03-09T14:16:58.529Z,99996.00
2024-03-09T14:18:33.820Z,100003.97
2024-03-09T14:20:18.023Z,99995.19
2024-03-09T14:21:52.012Z,99993.44
2024-03-09T14:23:24.819Z,99998.59
2024-03-09T14:24:58.183Z,99993.44
2024-03-09T14:26:31.706Z,99991.72
2024-03-09T14:28:04.951Z,99993.56
2024-03-09T14:29:37.887Z,99986.66
2024-03-09T14:31:10.585Z,99998.75
2024-03-09T14:32:43.221Z,99996.22
2024-03-09T14:34:16.066Z,99988.31
2024-03-09T14:35:48.226Z,99991.91
2024-03-09T14:37:20.334Z,99989.38
2024-03-09T14:38:55.776Z,99987.56
2024-03-09T14:40:32.879Z,99987.38
2024-03-09T14:42:05.313Z,99987.53
2024-03-09T14:43:40.963Z,99988.47
2024-03-09T14:45:20.133Z,99980.69
2024-03-09T14:46:53.686Z,99992.22
2024-03-09T14:48:29.432Z,99988.47
2024-03-09T14:50:01.610Z,99986.59
2024-03-09T14:53:15.252Z,99983.84
2024-03-09T14:54:47.703Z,99985.63
2024-03-09T14:56:20.006Z,99985.56
2024-03-09T14:57:54.719Z,99984.97
2024-03-09T14:59:31.284Z,99985.72
2024-03-09T15:01:06.324Z,99980.81
2024-03-09T15:02:40.038Z,99980.06
2024-03-09T15:04:16.377Z,99982.72
2024-03-09T15:05:52.706Z,99982.13
2024-03-09T15:07:25.975Z,99974.50
2024-03-09T15:09:00.219Z,99984.03
2024-03-09T15:10:32.394Z,99968.50
2024-03-09T15:12:09.449Z,99977.06
2024-03-09T15:13:45.657Z,99971.72
2024-03-09T15:15:17.690Z,99965.50
2024-03-09T15:16:54.042Z,99969.13
2024-03-09T15:18:28.352Z,99965.72
2024-03-09T15:20:00.618Z,99960.44
2024-03-09T15:21:32.879Z,99968.22
2024-03-09T15:23:06.208Z,99967.53
2024-03-09T15:24:38.672Z,99971.72
2024-03-09T15:27:44.686Z,99969.19
2024-03-09T15:29:17.465Z,99970.22
2024-03-09T15:30:53.916Z,99966.00
2024-03-09T15:32:28.077Z,99970.31
2024-03-09T15:34:00.550Z,99968.72
2024-03-09T15:35:34.826Z,99968.84
2024-03-09T15:37:07.071Z,99966.25
2024-03-09T15:38:41.798Z,99959.50
2024-03-09T15:40:18.177Z,99963.78
2024-03-09T15:41:50.329Z,99962.97
2024-03-09T15:43:24.880Z,99969.09
2024-03-09T15:44:57.091Z,99964.91
2024-03-09T15:46:31.039Z,99965.94
2024-03-09T15:48:03.314Z,99964.09
2024-03-09T15:49:36.142Z,99965.97
2024-03-09T15:51:12.140Z,99963.47
2024-03-09T15:52:44.999Z,99963.47
2024-03-09T15:54:20.088Z,99973.06
2024-03-09T15:55:52.304Z,99968.91
2024-03-09T15:57:25.777Z,99964.66
2024-03-09T15:58:58.705Z,99964.69
2024-03-09T16:00:34.065Z,99970.84
2024-03-09T16:02:06.180Z,99973.50
2024-03-09T16:03:39.589Z,99967.53
2024-03-09T16:05:14.913Z,99970.13
2024-03-09T16:06:48.321Z,99970.22
2024-03-09T16:08:23.321Z,99971.16
2024-03-09T16:09:56.272Z,99975.50
2024-03-09T16:11:30.185Z,99972.00
2024-03-09T16:13:05.549Z,99969.41
2024-03-09T16:14:38.301Z,99968.66
2024-03-09T16:16:15.603Z,99984.31
2024-03-09T16:17:51.153Z,99973.19
2024-03-09T16:19:30.190Z,99973.28
2024-03-09T16:21:10.394Z,99981.97
2024-03-09T16:22:43.634Z,99982.91
2024-03-09T16:24:15.697Z,99983.84
2024-03-09T16:25:50.122Z,99981.38
2024-03-09T16:27:27.230Z,99990.97
2024-03-09T16:29:01.657Z,99986.88
2024-03-09T16:30:40.793Z,99979.19
2024-03-09T16:32:18.712Z,99992.25
2024-03-09T16:33:50.988Z,99994.94
2024-03-09T16:35:23.121Z,99994.13
2024-03-09T16:36:55.278Z,99989.88
2024-03-09T16:38:27.606Z,99995.13
2024-03-09T16:40:00.848Z,99990.94
2024-03-09T16:41:34.326Z,100001.38
2024-03-09T16:43:07.624Z,99999.72
2024-03-09T16:44:39.765Z,100003.22
2024-03-09T16:46:13.036Z,100004.16
2024-03-09T16:47:45.313Z,100001.63
2024-03-09T16:49:19.852Z,100003.50
2024-03-09T16:50:52.279Z,100002.69
2024-03-09T16:52:24.745Z,100000.13
2024-03-09T16:53:56.938Z,100005.38
2024-03-09T16:55:34.682Z,100004.59
2024-03-09T16:57:08.803Z,100000.34
2024-03-09T16:58:41.402Z,100008.19
2024-03-09T17:00:23.589Z,100007.41
2024-03-09T17:01:58.064Z,100007.50
2024-03-09T17:03:30.842Z,100004.16
2024-03-09T17:05:04.663Z,100011.16
2024-03-09T17:06:38.725Z,100009.47
2024-03-09T17:08:12.593Z,100009.53
2024-03-09T17:09:44.884Z,100009.53
2024-03-09T17:11:19.261Z,100014.75
2024-03-09T17:12:51.470Z,100019.97
2024-03-09T17:14:24.101Z,100007.91
2024-03-09T17:16:00.124Z,100020.03
2024-03-09T17:17:32.269Z,100014.03
2024-03-09T17:19:04.434Z,100010.56
2024-03-09T17:20:36.511Z,100022.75
2024-03-09T17:22:17.985Z,100015.91
2024-03-09T17:23:52.046Z,100022.88
2024-03-09T17:25:24.248Z,100022.09
2024-03-09T17:27:00.181Z,100020.44
2024-03-09T17:28:35.853Z,100019.63
2024-03-09T17:30:08.515Z,100018.81
2024-03-09T17:31:50.491Z,100023.16
2024-03-09T17:33:23.570Z,100018.91
2024-03-09T17:34:55.728Z,100018.09
2024-03-09T17:36:28.155Z,100017.25
2024-03-09T17:38:00.483Z,100016.41
2024-03-09T17:39:34.432Z,100024.19
2024-03-09T17:41:06.444Z,100019.91
2024-03-09T17:42:38.662Z,100023.38
2024-03-09T17:44:11.825Z,100018.22
2024-03-09T17:45:44.023Z,100019.09
2024-03-09T17:47:16.356Z,100026.81
2024-03-09T17:48:49.706Z,100023.38
2024-03-09T17:50:26.471Z,100023.38
2024-03-09T17:51:59.950Z,100019.09
2024-03-09T17:53:33.342Z,100020.00
2024-03-09T17:55:07.674Z,100007.13
2024-03-09T17:56:40.278Z,100010.56
2024-03-09T17:58:13.664Z,100017.44
2024-03-09T17:59:45.793Z,100014.06
2024-03-09T18:01:21.125Z,100016.63
2024-03-09T18:02:53.567Z,100014.03
2024-03-09T18:04:25.713Z,100013.19
2024-03-09T18:05:58.205Z,100012.34
2024-03-09T18:07:30.225Z,100011.50
2024-03-09T18:09:02.294Z,100006.31
2024-03-09T18:10:34.367Z,100014.09
2024-03-09T18:12:06.569Z,100010.66
2024-03-09T18:13:38.785Z,100012.38
2024-03-09T18:15:12.096Z,100020.09
2024-03-09T18:16:44.251Z,100024.41
2024-03-09T18:18:18.294Z,100028.69
2024-03-09T18:19:50.760Z,100023.53
2024-03-09T18:21:26.500Z,100020.09
2024-03-09T18:23:01.471Z,100021.84
2024-03-09T18:24:34.601Z,100032.13
2024-03-09T18:26:10.222Z,100031.28
2024-03-09T18:27:42.602Z,100037.31
2024-03-09T18:29:15.208Z,100035.63
2024-03-09T18:30:47.606Z,100032.19
2024-03-09T18:32:19.848Z,100043.38
2024-03-09T18:33:54.159Z,100036.47
2024-03-09T18:35:26.412Z,100035.63
2024-03-09T18:36:58.749Z,100034.78
2024-03-09T18:38:32.940Z,100039.94
2024-03-09T18:40:06.892Z,100038.22
2024-03-09T18:41:39.206Z,100045.94
2024-03-09T18:43:11.441Z,100037.38
2024-03-09T18:44:43.479Z,100038.22
2024-03-09T18:46:21.143Z,100027.91
2024-03-09T18:47:55.140Z,100027.06
2024-03-09T18:49:28.679Z,100024.50
2024-03-09T18:51:02.215Z,100027.06
2024-03-09T18:52:34.196Z,100026.19
2024-03-09T18:54:06.528Z,100020.19
2024-03-09T18:55:39.329Z,100023.63
2024-03-09T18:57:11.832Z,100024.47
2024-03-09T18:58:44.424Z,100019.31
2024-03-09T19:00:19.692Z,100015.84
2024-03-09T19:01:52.957Z,100019.28
2024-03-09T19:03:25.117Z,100023.56
2024-03-09T19:04:57.211Z,100018.44
2024-03-09T19:06:29.645Z,100014.13
2024-03-09T19:08:04.484Z,100015.84
2024-03-09T19:09:40.164Z,100018.41
2024-03-09T19:11:12.708Z,100016.69
2024-03-09T19:12:46.125Z,100014.06
2024-03-09T19:14:18.395Z,100014.06
2024-03-09T19:15:50.584Z,100004.66
2024-03-09T19:17:22.640Z,100012.38
2024-03-09T19:18:54.877Z,100012.34
2024-03-09T19:20:28.329Z,100010.63
2024-03-09T19:22:00.433Z,100014.84